sensor_id;sensor_type;location;lat;lon;timestamp;temperature;humidity
23560;DHT22;11958;50.836;4.438;2023-05-15T00:01:54;12.80;78.80
23560;DHT22;11958;50.836;4.438;2023-05-15T00:04:26;12.80;78.60
23560;DHT22;11958;50.836;4.438;2023-05-15T00:07:02;12.50;80.60
23560;DHT22;11958;50.836;4.438;2023-05-15T00:09:30;12.40;81.30
23560;DHT22;11958;50.836;4.438;2023-05-15T00:12:07;12.40;81.10
23560;DHT22;11958;50.836;4.438;2023-05-15T00:14:39;12.40;81.40
23560;DHT22;11958;50.836;4.438;2023-05-15T00:17:14;12.20;81.80
23560;DHT22;11958;50.836;4.438;2023-05-15T00:19:48;12.10;82.50
23560;DHT22;11958;50.836;4.438;2023-05-15T00:22:44;12.10;82.50
23560;DHT22;11958;50.836;4.438;2023-05-15T00:30:01;12.30;81.90
23560;DHT22;11958;50.836;4.438;2023-05-15T00:32:26;12.20;82.70
23560;DHT22;11958;50.836;4.438;2023-05-15T00:35:09;12.40;82.50
23560;DHT22;11958;50.836;4.438;2023-05-15T00:37:44;12.50;82.00
23560;DHT22;11958;50.836;4.438;2023-05-15T00:40:30;12.80;79.30
23560;DHT22;11958;50.836;4.438;2023-05-15T00:43:05;12.60;80.70
23560;DHT22;11958;50.836;4.438;2023-05-15T00:45:35;12.50;81.00
23560;DHT22;11958;50.836;4.438;2023-05-15T00:48:11;12.30;81.60
23560;DHT22;11958;50.836;4.438;2023-05-15T00:50:56;11.80;83.10
23560;DHT22;11958;50.836;4.438;2023-05-15T00:53:35;11.50;84.10
23560;DHT22;11958;50.836;4.438;2023-05-15T00:56:03;11.90;83.10
23560;DHT22;11958;50.836;4.438;2023-05-15T01:33:37;12.00;83.30
23560;DHT22;11958;50.836;4.438;2023-05-15T01:39:27;11.50;84.20
23560;DHT22;11958;50.836;4.438;2023-05-15T01:44:31;11.80;84.00
23560;DHT22;11958;50.836;4.438;2023-05-15T01:47:03;11.80;83.80
23560;DHT22;11958;50.836;4.438;2023-05-15T01:49:31;11.50;84.40
23560;DHT22;11958;50.836;4.438;2023-05-15T02:02:45;11.60;85.20
23560;DHT22;11958;50.836;4.438;2023-05-15T02:05:45;11.80;84.70
23560;DHT22;11958;50.836;4.438;2023-05-15T02:09:05;12.00;84.60
23560;DHT22;11958;50.836;4.438;2023-05-15T02:12:09;11.60;84.50
23560;DHT22;11958;50.836;4.438;2023-05-15T02:15:12;11.60;85.30
23560;DHT22;11958;50.836;4.438;2023-05-15T02:18:18;12.10;83.90
23560;DHT22;11958;50.836;4.438;2023-05-15T02:20:54;11.60;84.70
23560;DHT22;11958;50.836;4.438;2023-05-15T02:23:20;12.00;84.30
23560;DHT22;11958;50.836;4.438;2023-05-15T02:28:49;11.70;84.30
23560;DHT22;11958;50.836;4.438;2023-05-15T02:36:51;11.70;84.80
23560;DHT22;11958;50.836;4.438;2023-05-15T02:39:18;11.50;84.80
23560;DHT22;11958;50.836;4.438;2023-05-15T02:41:48;11.60;84.80
23560;DHT22;11958;50.836;4.438;2023-05-15T02:44:16;11.60;85.10
23560;DHT22;11958;50.836;4.438;2023-05-15T02:46:43;11.60;85.20
23560;DHT22;11958;50.836;4.438;2023-05-15T02:49:09;11.50;85.10
23560;DHT22;11958;50.836;4.438;2023-05-15T02:51:36;11.60;85.00
23560;DHT22;11958;50.836;4.438;2023-05-15T02:54:02;11.50;84.80
23560;DHT22;11958;50.836;4.438;2023-05-15T02:56:28;11.20;85.20
23560;DHT22;11958;50.836;4.438;2023-05-15T02:58:54;11.10;85.20
23560;DHT22;11958;50.836;4.438;2023-05-15T03:01:20;11.20;85.80
23560;DHT22;11958;50.836;4.438;2023-05-15T03:03:46;11.60;84.70
23560;DHT22;11958;50.836;4.438;2023-05-15T03:06:12;11.80;83.60
23560;DHT22;11958;50.836;4.438;2023-05-15T03:08:37;11.50;84.30
23560;DHT22;11958;50.836;4.438;2023-05-15T03:11:03;11.20;84.80
23560;DHT22;11958;50.836;4.438;2023-05-15T03:13:29;11.10;84.80
23560;DHT22;11958;50.836;4.438;2023-05-15T03:15:54;10.90;85.20
23560;DHT22;11958;50.836;4.438;2023-05-15T03:18:20;10.80;85.40
23560;DHT22;11958;50.836;4.438;2023-05-15T03:20:47;10.50;86.50
23560;DHT22;11958;50.836;4.438;2023-05-15T03:23:15;10.60;86.80
23560;DHT22;11958;50.836;4.438;2023-05-15T03:25:41;10.80;86.30
23560;DHT22;11958;50.836;4.438;2023-05-15T03:28:06;10.80;85.40
23560;DHT22;11958;50.836;4.438;2023-05-15T03:30:32;10.80;85.50
23560;DHT22;11958;50.836;4.438;2023-05-15T03:32:58;10.70;86.20
23560;DHT22;11958;50.836;4.438;2023-05-15T03:35:23;10.60;86.40
23560;DHT22;11958;50.836;4.438;2023-05-15T03:37:50;10.60;87.30
23560;DHT22;11958;50.836;4.438;2023-05-15T03:40:16;10.70;86.90
23560;DHT22;11958;50.836;4.438;2023-05-15T03:42:41;10.60;87.50
23560;DHT22;11958;50.836;4.438;2023-05-15T03:45:07;10.60;87.40
23560;DHT22;11958;50.836;4.438;2023-05-15T03:47:33;10.70;87.30
23560;DHT22;11958;50.836;4.438;2023-05-15T03:49:59;10.70;87.20
23560;DHT22;11958;50.836;4.438;2023-05-15T03:52:25;10.70;87.30
23560;DHT22;11958;50.836;4.438;2023-05-15T03:54:51;10.90;86.60
23560;DHT22;11958;50.836;4.438;2023-05-15T03:57:16;10.80;86.60
23560;DHT22;11958;50.836;4.438;2023-05-15T03:59:42;10.90;86.50
23560;DHT22;11958;50.836;4.438;2023-05-15T04:02:07;10.80;86.20
23560;DHT22;11958;50.836;4.438;2023-05-15T04:04:33;10.90;86.70
23560;DHT22;11958;50.836;4.438;2023-05-15T04:06:59;10.80;87.10
23560;DHT22;11958;50.836;4.438;2023-05-15T04:09:25;11.20;86.40
23560;DHT22;11958;50.836;4.438;2023-05-15T04:11:50;11.10;86.20
23560;DHT22;11958;50.836;4.438;2023-05-15T04:14:16;11.10;86.00
23560;DHT22;11958;50.836;4.438;2023-05-15T04:16:42;10.90;86.20
23560;DHT22;11958;50.836;4.438;2023-05-15T04:19:07;11.00;86.20
23560;DHT22;11958;50.836;4.438;2023-05-15T04:21:33;11.00;85.40
23560;DHT22;11958;50.836;4.438;2023-05-15T04:23:58;11.00;85.50
23560;DHT22;11958;50.836;4.438;2023-05-15T04:26:24;11.30;85.00
23560;DHT22;11958;50.836;4.438;2023-05-15T04:28:50;11.20;84.90
23560;DHT22;11958;50.836;4.438;2023-05-15T04:31:16;11.10;84.20
23560;DHT22;11958;50.836;4.438;2023-05-15T04:33:42;11.40;84.60
23560;DHT22;11958;50.836;4.438;2023-05-15T04:36:08;11.60;84.40
23560;DHT22;11958;50.836;4.438;2023-05-15T04:38:34;11.70;83.80
23560;DHT22;11958;50.836;4.438;2023-05-15T04:40:59;11.70;83.80
23560;DHT22;11958;50.836;4.438;2023-05-15T04:43:25;11.70;83.80
23560;DHT22;11958;50.836;4.438;2023-05-15T04:45:51;11.60;83.10
23560;DHT22;11958;50.836;4.438;2023-05-15T04:48:16;11.30;84.20
23560;DHT22;11958;50.836;4.438;2023-05-15T04:50:43;11.20;85.00
23560;DHT22;11958;50.836;4.438;2023-05-15T04:53:09;11.30;84.60
23560;DHT22;11958;50.836;4.438;2023-05-15T04:55:35;11.50;83.40
23560;DHT22;11958;50.836;4.438;2023-05-15T04:58:01;11.50;83.30
23560;DHT22;11958;50.836;4.438;2023-05-15T05:00:27;11.70;82.50
23560;DHT22;11958;50.836;4.438;2023-05-15T05:02:53;11.50;83.60
23560;DHT22;11958;50.836;4.438;2023-05-15T05:05:18;11.50;83.10
23560;DHT22;11958;50.836;4.438;2023-05-15T05:07:45;11.30;82.80
23560;DHT22;11958;50.836;4.438;2023-05-15T05:10:11;11.30;82.50
23560;DHT22;11958;50.836;4.438;2023-05-15T05:12:36;11.20;82.90
23560;DHT22;11958;50.836;4.438;2023-05-15T05:15:02;11.40;83.10
23560;DHT22;11958;50.836;4.438;2023-05-15T05:17:29;11.80;83.40
23560;DHT22;11958;50.836;4.438;2023-05-15T05:19:55;12.00;82.20
23560;DHT22;11958;50.836;4.438;2023-05-15T05:22:21;11.80;82.10
23560;DHT22;11958;50.836;4.438;2023-05-15T05:24:46;12.20;81.50
23560;DHT22;11958;50.836;4.438;2023-05-15T05:27:12;12.10;81.60
23560;DHT22;11958;50.836;4.438;2023-05-15T05:29:38;12.10;82.40
23560;DHT22;11958;50.836;4.438;2023-05-15T05:32:05;12.20;80.40
23560;DHT22;11958;50.836;4.438;2023-05-15T05:34:32;12.20;79.80
23560;DHT22;11958;50.836;4.438;2023-05-15T05:36:57;12.10;79.80
23560;DHT22;11958;50.836;4.438;2023-05-15T05:39:23;12.10;80.00
23560;DHT22;11958;50.836;4.438;2023-05-15T05:41:48;11.80;80.20
23560;DHT22;11958;50.836;4.438;2023-05-15T05:44:14;11.80;81.30
23560;DHT22;11958;50.836;4.438;2023-05-15T05:46:40;12.00;81.40
23560;DHT22;11958;50.836;4.438;2023-05-15T05:49:06;12.30;80.30
23560;DHT22;11958;50.836;4.438;2023-05-15T05:51:33;12.40;79.40
23560;DHT22;11958;50.836;4.438;2023-05-15T05:53:59;12.40;79.40
23560;DHT22;11958;50.836;4.438;2023-05-15T05:56:24;12.50;79.30
23560;DHT22;11958;50.836;4.438;2023-05-15T05:58:50;12.80;76.50
23560;DHT22;11958;50.836;4.438;2023-05-15T06:01:16;12.50;78.20
23560;DHT22;11958;50.836;4.438;2023-05-15T06:03:42;12.30;79.10
23560;DHT22;11958;50.836;4.438;2023-05-15T06:06:09;12.30;79.30
23560;DHT22;11958;50.836;4.438;2023-05-15T06:08:34;12.40;78.70
23560;DHT22;11958;50.836;4.438;2023-05-15T06:11:00;12.10;79.40
23560;DHT22;11958;50.836;4.438;2023-05-15T06:13:28;12.20;79.60
23560;DHT22;11958;50.836;4.438;2023-05-15T06:15:57;12.20;79.70
23560;DHT22;11958;50.836;4.438;2023-05-15T06:18:22;12.40;79.60
23560;DHT22;11958;50.836;4.438;2023-05-15T06:20:48;12.40;78.60
23560;DHT22;11958;50.836;4.438;2023-05-15T06:23:14;12.40;78.70
23560;DHT22;11958;50.836;4.438;2023-05-15T06:25:40;12.40;77.80
23560;DHT22;11958;50.836;4.438;2023-05-15T06:28:05;12.20;78.70
23560;DHT22;11958;50.836;4.438;2023-05-15T06:30:31;12.20;79.00
23560;DHT22;11958;50.836;4.438;2023-05-15T06:32:57;12.50;79.70
23560;DHT22;11958;50.836;4.438;2023-05-15T06:35:22;12.60;79.00
23560;DHT22;11958;50.836;4.438;2023-05-15T06:37:51;12.90;77.50
23560;DHT22;11958;50.836;4.438;2023-05-15T06:40:17;13.10;75.80
23560;DHT22;11958;50.836;4.438;2023-05-15T06:42:43;13.20;76.00
23560;DHT22;11958;50.836;4.438;2023-05-15T06:45:09;13.40;74.80
23560;DHT22;11958;50.836;4.438;2023-05-15T06:47:35;13.40;74.50
23560;DHT22;11958;50.836;4.438;2023-05-15T06:50:00;13.60;73.40
23560;DHT22;11958;50.836;4.438;2023-05-15T06:52:26;13.60;72.80
23560;DHT22;11958;50.836;4.438;2023-05-15T06:54:52;13.50;73.60
23560;DHT22;11958;50.836;4.438;2023-05-15T06:57:18;13.70;72.00
23560;DHT22;11958;50.836;4.438;2023-05-15T06:59:44;13.80;71.40
23560;DHT22;11958;50.836;4.438;2023-05-15T07:02:10;13.90;71.90
23560;DHT22;11958;50.836;4.438;2023-05-15T07:04:36;13.70;72.40
23560;DHT22;11958;50.836;4.438;2023-05-15T07:07:04;14.20;71.50
23560;DHT22;11958;50.836;4.438;2023-05-15T07:09:50;14.20;70.30
23560;DHT22;11958;50.836;4.438;2023-05-15T07:12:16;14.20;70.50
23560;DHT22;11958;50.836;4.438;2023-05-15T07:14:41;14.20;70.80
23560;DHT22;11958;50.836;4.438;2023-05-15T07:17:07;14.30;69.10
23560;DHT22;11958;50.836;4.438;2023-05-15T07:19:33;14.20;70.70
23560;DHT22;11958;50.836;4.438;2023-05-15T07:21:58;14.60;70.30
23560;DHT22;11958;50.836;4.438;2023-05-15T07:24:24;14.30;70.20
23560;DHT22;11958;50.836;4.438;2023-05-15T07:26:50;14.30;69.80
23560;DHT22;11958;50.836;4.438;2023-05-15T07:29:15;14.50;68.90
23560;DHT22;11958;50.836;4.438;2023-05-15T07:31:41;14.40;69.30
23560;DHT22;11958;50.836;4.438;2023-05-15T07:34:10;14.30;69.40
23560;DHT22;11958;50.836;4.438;2023-05-15T07:36:35;14.30;70.80
23560;DHT22;11958;50.836;4.438;2023-05-15T07:39:01;14.70;69.30
23560;DHT22;11958;50.836;4.438;2023-05-15T07:41:27;14.70;68.80
23560;DHT22;11958;50.836;4.438;2023-05-15T07:43:52;15.00;66.60
23560;DHT22;11958;50.836;4.438;2023-05-15T07:46:18;14.90;69.40
23560;DHT22;11958;50.836;4.438;2023-05-15T07:48:44;14.70;68.00
23560;DHT22;11958;50.836;4.438;2023-05-15T07:51:09;14.70;67.80
23560;DHT22;11958;50.836;4.438;2023-05-15T07:53:35;15.00;67.00
23560;DHT22;11958;50.836;4.438;2023-05-15T07:56:01;15.60;64.80
23560;DHT22;11958;50.836;4.438;2023-05-15T07:58:26;15.60;65.10
23560;DHT22;11958;50.836;4.438;2023-05-15T08:00:53;16.00;61.40
23560;DHT22;11958;50.836;4.438;2023-05-15T08:03:18;15.70;63.30
23560;DHT22;11958;50.836;4.438;2023-05-15T08:05:44;15.60;64.10
23560;DHT22;11958;50.836;4.438;2023-05-15T08:08:09;15.70;63.40
23560;DHT22;11958;50.836;4.438;2023-05-15T08:10:35;15.90;62.00
23560;DHT22;11958;50.836;4.438;2023-05-15T08:13:01;15.40;64.20
23560;DHT22;11958;50.836;4.438;2023-05-15T08:15:26;15.80;61.10
23560;DHT22;11958;50.836;4.438;2023-05-15T08:17:53;15.40;65.10
23560;DHT22;11958;50.836;4.438;2023-05-15T08:20:19;15.50;62.60
23560;DHT22;11958;50.836;4.438;2023-05-15T08:22:45;15.20;63.80
23560;DHT22;11958;50.836;4.438;2023-05-15T08:25:10;15.50;62.90
23560;DHT22;11958;50.836;4.438;2023-05-15T08:27:36;16.10;61.80
23560;DHT22;11958;50.836;4.438;2023-05-15T08:30:02;16.30;62.30
23560;DHT22;11958;50.836;4.438;2023-05-15T08:32:28;16.30;61.00
23560;DHT22;11958;50.836;4.438;2023-05-15T08:34:54;16.20;61.60
23560;DHT22;11958;50.836;4.438;2023-05-15T08:37:20;16.30;62.60
23560;DHT22;11958;50.836;4.438;2023-05-15T08:39:45;16.50;61.30
23560;DHT22;11958;50.836;4.438;2023-05-15T08:44:43;17.00;59.90
23560;DHT22;11958;50.836;4.438;2023-05-15T08:47:09;16.80;59.60
23560;DHT22;11958;50.836;4.438;2023-05-15T08:52:13;16.60;59.30
23560;DHT22;11958;50.836;4.438;2023-05-15T08:54:40;16.30;61.60
23560;DHT22;11958;50.836;4.438;2023-05-15T08:57:06;16.90;59.50
23560;DHT22;11958;50.836;4.438;2023-05-15T08:59:32;16.90;58.80
23560;DHT22;11958;50.836;4.438;2023-05-15T09:01:59;16.80;60.80
23560;DHT22;11958;50.836;4.438;2023-05-15T09:04:25;16.50;60.70
23560;DHT22;11958;50.836;4.438;2023-05-15T09:06:51;16.80;59.80
23560;DHT22;11958;50.836;4.438;2023-05-15T09:09:18;16.60;61.20
23560;DHT22;11958;50.836;4.438;2023-05-15T09:11:45;16.70;60.80
23560;DHT22;11958;50.836;4.438;2023-05-15T09:14:17;17.00;59.30
23560;DHT22;11958;50.836;4.438;2023-05-15T09:16:44;16.70;59.40
23560;DHT22;11958;50.836;4.438;2023-05-15T09:19:27;17.10;59.20
23560;DHT22;11958;50.836;4.438;2023-05-15T09:22:12;16.90;57.70
23560;DHT22;11958;50.836;4.438;2023-05-15T09:24:38;17.00;60.10
23560;DHT22;11958;50.836;4.438;2023-05-15T09:27:05;17.30;56.40
23560;DHT22;11958;50.836;4.438;2023-05-15T09:29:33;17.40;56.30
23560;DHT22;11958;50.836;4.438;2023-05-15T09:32:24;17.20;57.10
23560;DHT22;11958;50.836;4.438;2023-05-15T09:34:47;16.80;56.90
23560;DHT22;11958;50.836;4.438;2023-05-15T09:37:32;16.90;58.50
23560;DHT22;11958;50.836;4.438;2023-05-15T09:40:09;17.20;57.70
23560;DHT22;11958;50.836;4.438;2023-05-15T09:42:35;17.50;56.10
23560;DHT22;11958;50.836;4.438;2023-05-15T09:45:01;17.70;56.00
23560;DHT22;11958;50.836;4.438;2023-05-15T09:47:27;17.70;54.60
23560;DHT22;11958;50.836;4.438;2023-05-15T09:49:53;17.70;56.20
23560;DHT22;11958;50.836;4.438;2023-05-15T09:52:18;17.30;56.20
23560;DHT22;11958;50.836;4.438;2023-05-15T09:54:44;17.40;59.70
23560;DHT22;11958;50.836;4.438;2023-05-15T09:57:13;17.40;57.10
23560;DHT22;11958;50.836;4.438;2023-05-15T09:59:46;17.60;56.90
23560;DHT22;11958;50.836;4.438;2023-05-15T10:02:18;17.60;56.20
23560;DHT22;11958;50.836;4.438;2023-05-15T10:04:53;17.80;57.40
23560;DHT22;11958;50.836;4.438;2023-05-15T10:07:27;18.30;53.50
23560;DHT22;11958;50.836;4.438;2023-05-15T10:09:53;18.90;51.30
23560;DHT22;11958;50.836;4.438;2023-05-15T10:12:19;19.00;53.10
23560;DHT22;11958;50.836;4.438;2023-05-15T10:14:45;19.00;51.70
23560;DHT22;11958;50.836;4.438;2023-05-15T10:17:12;18.80;53.20
23560;DHT22;11958;50.836;4.438;2023-05-15T10:19:39;18.80;51.90
23560;DHT22;11958;50.836;4.438;2023-05-15T10:22:06;19.30;51.60
23560;DHT22;11958;50.836;4.438;2023-05-15T10:24:34;18.80;51.00
23560;DHT22;11958;50.836;4.438;2023-05-15T10:27:00;19.00;52.40
23560;DHT22;11958;50.836;4.438;2023-05-15T10:29:28;18.90;50.00
23560;DHT22;11958;50.836;4.438;2023-05-15T10:31:53;19.00;51.60
23560;DHT22;11958;50.836;4.438;2023-05-15T10:34:20;19.10;52.80
23560;DHT22;11958;50.836;4.438;2023-05-15T10:36:46;19.10;51.80
23560;DHT22;11958;50.836;4.438;2023-05-15T10:39:14;19.00;51.50
23560;DHT22;11958;50.836;4.438;2023-05-15T10:41:41;18.80;53.00
23560;DHT22;11958;50.836;4.438;2023-05-15T10:44:10;19.10;53.20
23560;DHT22;11958;50.836;4.438;2023-05-15T10:46:36;19.20;52.90
23560;DHT22;11958;50.836;4.438;2023-05-15T10:49:03;18.80;53.30
23560;DHT22;11958;50.836;4.438;2023-05-15T10:51:30;18.50;52.90
23560;DHT22;11958;50.836;4.438;2023-05-15T10:53:59;18.40;54.00
23560;DHT22;11958;50.836;4.438;2023-05-15T10:56:31;18.50;54.60
23560;DHT22;11958;50.836;4.438;2023-05-15T10:59:04;18.00;56.30
23560;DHT22;11958;50.836;4.438;2023-05-15T11:01:33;17.80;57.60
23560;DHT22;11958;50.836;4.438;2023-05-15T11:04:16;17.80;57.90
23560;DHT22;11958;50.836;4.438;2023-05-15T11:06:47;17.80;57.90
23560;DHT22;11958;50.836;4.438;2023-05-15T11:14:18;18.60;54.70
23560;DHT22;11958;50.836;4.438;2023-05-15T11:22:14;18.80;55.70
23560;DHT22;11958;50.836;4.438;2023-05-15T11:25:07;18.90;54.70
23560;DHT22;11958;50.836;4.438;2023-05-15T11:30:09;18.20;57.10
23560;DHT22;11958;50.836;4.438;2023-05-15T11:32:54;18.10;59.00
23560;DHT22;11958;50.836;4.438;2023-05-15T11:35:35;17.90;60.20
23560;DHT22;11958;50.836;4.438;2023-05-15T11:40:44;17.70;61.00
23560;DHT22;11958;50.836;4.438;2023-05-15T11:43:18;17.40;62.50
23560;DHT22;11958;50.836;4.438;2023-05-15T11:48:32;17.00;63.80
23560;DHT22;11958;50.836;4.438;2023-05-15T11:54:49;16.70;64.80
23560;DHT22;11958;50.836;4.438;2023-05-15T11:57:28;16.60;67.40
23560;DHT22;11958;50.836;4.438;2023-05-15T12:00:07;17.00;65.10
23560;DHT22;11958;50.836;4.438;2023-05-15T12:02:34;16.90;65.00
23560;DHT22;11958;50.836;4.438;2023-05-15T12:05:00;16.70;66.00
23560;DHT22;11958;50.836;4.438;2023-05-15T12:07:25;16.70;67.30
23560;DHT22;11958;50.836;4.438;2023-05-15T12:09:54;17.10;66.10
23560;DHT22;11958;50.836;4.438;2023-05-15T12:12:20;17.50;65.50
23560;DHT22;11958;50.836;4.438;2023-05-15T12:14:45;17.80;64.70
23560;DHT22;11958;50.836;4.438;2023-05-15T12:17:11;17.60;64.40
23560;DHT22;11958;50.836;4.438;2023-05-15T12:19:37;18.00;64.00
23560;DHT22;11958;50.836;4.438;2023-05-15T12:22:04;17.80;64.00
23560;DHT22;11958;50.836;4.438;2023-05-15T12:24:31;17.40;63.70
23560;DHT22;11958;50.836;4.438;2023-05-15T12:26:57;17.30;64.40
23560;DHT22;11958;50.836;4.438;2023-05-15T12:29:22;17.60;64.40
23560;DHT22;11958;50.836;4.438;2023-05-15T12:31:49;17.50;64.00
23560;DHT22;11958;50.836;4.438;2023-05-15T12:34:18;17.50;64.80
23560;DHT22;11958;50.836;4.438;2023-05-15T12:36:44;17.80;64.40
23560;DHT22;11958;50.836;4.438;2023-05-15T12:39:10;17.90;64.00
23560;DHT22;11958;50.836;4.438;2023-05-15T12:41:36;17.80;64.80
23560;DHT22;11958;50.836;4.438;2023-05-15T12:44:04;17.30;67.30
23560;DHT22;11958;50.836;4.438;2023-05-15T12:46:30;17.20;66.90
23560;DHT22;11958;50.836;4.438;2023-05-15T12:49:00;17.00;67.40
23560;DHT22;11958;50.836;4.438;2023-05-15T12:51:26;17.20;68.90
23560;DHT22;11958;50.836;4.438;2023-05-15T12:53:54;17.00;68.60
23560;DHT22;11958;50.836;4.438;2023-05-15T12:56:22;16.70;68.40
23560;DHT22;11958;50.836;4.438;2023-05-15T13:01:54;15.80;73.10
23560;DHT22;11958;50.836;4.438;2023-05-15T13:04:20;15.70;74.80
23560;DHT22;11958;50.836;4.438;2023-05-15T13:06:49;15.40;76.90
23560;DHT22;11958;50.836;4.438;2023-05-15T13:09:22;15.20;78.80
23560;DHT22;11958;50.836;4.438;2023-05-15T13:11:50;15.50;77.80
23560;DHT22;11958;50.836;4.438;2023-05-15T13:14:19;15.40;78.80
23560;DHT22;11958;50.836;4.438;2023-05-15T13:16:45;15.40;78.60
23560;DHT22;11958;50.836;4.438;2023-05-15T13:19:11;15.30;78.80
23560;DHT22;11958;50.836;4.438;2023-05-15T13:21:37;15.30;79.40
23560;DHT22;11958;50.836;4.438;2023-05-15T13:24:03;15.10;79.80
23560;DHT22;11958;50.836;4.438;2023-05-15T13:26:29;14.80;81.30
23560;DHT22;11958;50.836;4.438;2023-05-15T13:28:55;14.70;80.40
23560;DHT22;11958;50.836;4.438;2023-05-15T13:31:20;14.40;81.70
23560;DHT22;11958;50.836;4.438;2023-05-15T13:33:47;14.50;82.70
23560;DHT22;11958;50.836;4.438;2023-05-15T13:36:12;14.30;82.70
23560;DHT22;11958;50.836;4.438;2023-05-15T13:38:38;14.20;83.40
23560;DHT22;11958;50.836;4.438;2023-05-15T13:41:04;14.00;83.80
23560;DHT22;11958;50.836;4.438;2023-05-15T13:43:30;13.90;84.40
23560;DHT22;11958;50.836;4.438;2023-05-15T13:45:56;13.80;84.70
23560;DHT22;11958;50.836;4.438;2023-05-15T13:48:21;13.80;84.90
23560;DHT22;11958;50.836;4.438;2023-05-15T13:51:09;13.70;84.30
23560;DHT22;11958;50.836;4.438;2023-05-15T13:53:51;13.50;83.70
23560;DHT22;11958;50.836;4.438;2023-05-15T13:56:32;13.50;83.90
23560;DHT22;11958;50.836;4.438;2023-05-15T13:58:58;13.50;83.70
23560;DHT22;11958;50.836;4.438;2023-05-15T14:01:35;13.50;83.60
23560;DHT22;11958;50.836;4.438;2023-05-15T14:04:08;13.60;83.50
23560;DHT22;11958;50.836;4.438;2023-05-15T14:06:34;13.60;82.90
23560;DHT22;11958;50.836;4.438;2023-05-15T14:08:59;13.50;83.50
23560;DHT22;11958;50.836;4.438;2023-05-15T14:11:25;13.50;83.80
23560;DHT22;11958;50.836;4.438;2023-05-15T14:13:51;13.70;84.10
23560;DHT22;11958;50.836;4.438;2023-05-15T14:16:16;13.60;83.90
23560;DHT22;11958;50.836;4.438;2023-05-15T14:18:42;13.40;83.80
23560;DHT22;11958;50.836;4.438;2023-05-15T14:21:08;13.30;84.30
23560;DHT22;11958;50.836;4.438;2023-05-15T14:23:36;13.30;84.10
23560;DHT22;11958;50.836;4.438;2023-05-15T14:26:01;13.00;84.10
23560;DHT22;11958;50.836;4.438;2023-05-15T14:28:28;13.00;84.30
23560;DHT22;11958;50.836;4.438;2023-05-15T14:30:53;12.90;84.50
23560;DHT22;11958;50.836;4.438;2023-05-15T14:33:19;12.90;85.70
23560;DHT22;11958;50.836;4.438;2023-05-15T14:35:45;12.80;85.80
23560;DHT22;11958;50.836;4.438;2023-05-15T14:38:10;12.80;85.90
23560;DHT22;11958;50.836;4.438;2023-05-15T14:40:36;12.90;85.10
23560;DHT22;11958;50.836;4.438;2023-05-15T14:43:02;12.70;84.70
23560;DHT22;11958;50.836;4.438;2023-05-15T14:45:28;12.70;84.80
23560;DHT22;11958;50.836;4.438;2023-05-15T14:47:53;12.80;85.10
23560;DHT22;11958;50.836;4.438;2023-05-15T14:50:19;12.80;84.80
23560;DHT22;11958;50.836;4.438;2023-05-15T14:52:45;12.80;85.00
23560;DHT22;11958;50.836;4.438;2023-05-15T14:55:10;12.80;84.30
23560;DHT22;11958;50.836;4.438;2023-05-15T14:57:37;12.70;85.80
23560;DHT22;11958;50.836;4.438;2023-05-15T15:00:03;12.50;84.90
23560;DHT22;11958;50.836;4.438;2023-05-15T15:02:32;12.50;85.00
23560;DHT22;11958;50.836;4.438;2023-05-15T15:04:58;12.60;84.50
23560;DHT22;11958;50.836;4.438;2023-05-15T15:07:28;12.70;82.30
23560;DHT22;11958;50.836;4.438;2023-05-15T15:09:54;12.80;81.80
23560;DHT22;11958;50.836;4.438;2023-05-15T15:12:21;12.90;80.30
23560;DHT22;11958;50.836;4.438;2023-05-15T15:14:47;13.00;80.50
23560;DHT22;11958;50.836;4.438;2023-05-15T15:17:13;13.00;80.50
23560;DHT22;11958;50.836;4.438;2023-05-15T15:19:38;12.90;79.80
23560;DHT22;11958;50.836;4.438;2023-05-15T15:22:04;12.90;80.50
23560;DHT22;11958;50.836;4.438;2023-05-15T15:24:30;13.00;81.70
23560;DHT22;11958;50.836;4.438;2023-05-15T15:26:55;13.10;81.90
23560;DHT22;11958;50.836;4.438;2023-05-15T15:29:27;13.20;80.60
23560;DHT22;11958;50.836;4.438;2023-05-15T15:32:02;13.30;79.90
23560;DHT22;11958;50.836;4.438;2023-05-15T15:34:41;13.20;79.40
23560;DHT22;11958;50.836;4.438;2023-05-15T15:37:06;13.30;80.10
23560;DHT22;11958;50.836;4.438;2023-05-15T15:39:32;13.20;80.30
23560;DHT22;11958;50.836;4.438;2023-05-15T15:41:58;13.10;80.90
23560;DHT22;11958;50.836;4.438;2023-05-15T15:44:23;13.20;81.10
23560;DHT22;11958;50.836;4.438;2023-05-15T15:46:49;13.40;80.90
23560;DHT22;11958;50.836;4.438;2023-05-15T15:49:15;13.60;80.00
23560;DHT22;11958;50.836;4.438;2023-05-15T15:51:40;13.70;79.00
23560;DHT22;11958;50.836;4.438;2023-05-15T15:54:06;13.60;79.10
23560;DHT22;11958;50.836;4.438;2023-05-15T15:56:32;13.60;78.20
23560;DHT22;11958;50.836;4.438;2023-05-15T15:58:57;13.50;78.60
23560;DHT22;11958;50.836;4.438;2023-05-15T16:01:23;13.60;79.40
23560;DHT22;11958;50.836;4.438;2023-05-15T16:03:49;13.70;79.10
23560;DHT22;11958;50.836;4.438;2023-05-15T16:06:14;13.70;78.70
23560;DHT22;11958;50.836;4.438;2023-05-15T16:08:40;13.40;78.40
23560;DHT22;11958;50.836;4.438;2023-05-15T16:11:06;13.30;79.10
23560;DHT22;11958;50.836;4.438;2023-05-15T16:13:32;13.40;80.00
23560;DHT22;11958;50.836;4.438;2023-05-15T16:15:57;13.70;79.40
23560;DHT22;11958;50.836;4.438;2023-05-15T16:18:23;13.60;79.50
23560;DHT22;11958;50.836;4.438;2023-05-15T16:20:49;13.60;79.90
23560;DHT22;11958;50.836;4.438;2023-05-15T16:23:14;13.70;79.30
23560;DHT22;11958;50.836;4.438;2023-05-15T16:25:43;13.80;79.70
23560;DHT22;11958;50.836;4.438;2023-05-15T16:28:08;13.60;78.70
23560;DHT22;11958;50.836;4.438;2023-05-15T16:30:34;13.50;79.60
23560;DHT22;11958;50.836;4.438;2023-05-15T16:33:00;13.50;79.00
23560;DHT22;11958;50.836;4.438;2023-05-15T16:35:26;13.50;79.80
23560;DHT22;11958;50.836;4.438;2023-05-15T16:37:51;13.60;80.10
23560;DHT22;11958;50.836;4.438;2023-05-15T16:40:17;13.40;80.50
23560;DHT22;11958;50.836;4.438;2023-05-15T16:42:43;13.50;80.90
23560;DHT22;11958;50.836;4.438;2023-05-15T16:45:09;13.60;80.60
23560;DHT22;11958;50.836;4.438;2023-05-15T16:47:37;13.60;80.10
23560;DHT22;11958;50.836;4.438;2023-05-15T16:50:05;13.50;79.70
23560;DHT22;11958;50.836;4.438;2023-05-15T16:52:31;13.60;80.70
23560;DHT22;11958;50.836;4.438;2023-05-15T16:54:57;13.50;81.40
23560;DHT22;11958;50.836;4.438;2023-05-15T16:57:22;13.70;81.40
23560;DHT22;11958;50.836;4.438;2023-05-15T16:59:48;13.40;80.50
23560;DHT22;11958;50.836;4.438;2023-05-15T17:02:14;13.20;81.80
23560;DHT22;11958;50.836;4.438;2023-05-15T17:04:40;13.00;82.80
23560;DHT22;11958;50.836;4.438;2023-05-15T17:07:05;12.90;83.10
23560;DHT22;11958;50.836;4.438;2023-05-15T17:09:31;12.80;82.70
23560;DHT22;11958;50.836;4.438;2023-05-15T17:11:57;12.70;83.60